CCA8334 ZBHH-ZSPD
Flight info
| Callsign | CCA8334 |
|---|---|
| Flight time | N/A |
| Altitude | 33100 |
| Route | TUSLA W64 AKNUX W247 MUGUT B458 SAKRI W631 PINAP G212 AMVOG W61 BEKDO W157 DALIM A593 VMB W161 SASAN |
| Aircraft | B737/M-SDE3FGHIRWY/LB1 |
Departure
| Time | 2026-05-06 12:13 |
|---|---|
| Airport | Hohhot Baita International Airport (ZBHH) |
Arrival
| Time | N/A |
|---|---|
| Airport | Shanghai Pudong International Airport (ZSPD) |
| Time | Latitude | Longitude | Altitude | Speed | Heading |
|---|---|---|---|---|---|
| 2026-05-06 11:51 | 40.85216 | 111.81205 | 3564 ft | 0 kts | 342° |
| 2026-05-06 12:03 | 40.85207 | 111.81209 | 3564 ft | 2 kts | 344° |
| 2026-05-06 12:03 | 40.85192 | 111.81214 | 3564 ft | 2 kts | 348° |
| 2026-05-06 12:04 | 40.85176 | 111.81218 | 3564 ft | 2 kts | 356° |
| 2026-05-06 12:04 | 40.85160 | 111.81218 | 3564 ft | 2 kts | 12° |
| 2026-05-06 12:04 | 40.85146 | 111.81212 | 3564 ft | 2 kts | 47° |
| 2026-05-06 12:04 | 40.85139 | 111.81195 | 3564 ft | 2 kts | 72° |
| 2026-05-06 12:05 | 40.85138 | 111.81191 | 3564 ft | 0 kts | 72° |
| 2026-05-06 12:07 | 40.85139 | 111.81192 | 3564 ft | 2 kts | 72° |
| 2026-05-06 12:07 | 40.85162 | 111.81291 | 3564 ft | 20 kts | 72° |
| 2026-05-06 12:07 | 40.85202 | 111.81455 | 3564 ft | 14 kts | 73° |
| 2026-05-06 12:07 | 40.85232 | 111.81590 | 3564 ft | 19 kts | 73° |
| 2026-05-06 12:08 | 40.85217 | 111.81686 | 3564 ft | 11 kts | 161° |
| 2026-05-06 12:08 | 40.85140 | 111.81719 | 3564 ft | 11 kts | 162° |
| 2026-05-06 12:08 | 40.85066 | 111.81751 | 3564 ft | 11 kts | 162° |
| 2026-05-06 12:08 | 40.85018 | 111.81810 | 3564 ft | 13 kts | 80° |
| 2026-05-06 12:09 | 40.85054 | 111.81999 | 3564 ft | 27 kts | 73° |
| 2026-05-06 12:09 | 40.85109 | 111.82239 | 3564 ft | 26 kts | 72° |
| 2026-05-06 12:09 | 40.85164 | 111.82474 | 3564 ft | 27 kts | 71° |
| 2026-05-06 12:09 | 40.85218 | 111.82705 | 3564 ft | 27 kts | 73° |
| 2026-05-06 12:10 | 40.85272 | 111.82937 | 3564 ft | 26 kts | 72° |
| 2026-05-06 12:10 | 40.85331 | 111.83181 | 3564 ft | 29 kts | 72° |
| 2026-05-06 12:10 | 40.85387 | 111.83420 | 3564 ft | 26 kts | 72° |
| 2026-05-06 12:10 | 40.85439 | 111.83635 | 3564 ft | 23 kts | 76° |
| 2026-05-06 12:11 | 40.85489 | 111.83856 | 3564 ft | 27 kts | 72° |
| 2026-05-06 12:11 | 40.85545 | 111.84109 | 3564 ft | 29 kts | 72° |
| 2026-05-06 12:11 | 40.85598 | 111.84313 | 3564 ft | 16 kts | 72° |
| 2026-05-06 12:11 | 40.85594 | 111.84403 | 3564 ft | 13 kts | 140° |
| 2026-05-06 12:12 | 40.85480 | 111.84461 | 3564 ft | 13 kts | 164° |
| 2026-05-06 12:12 | 40.85432 | 111.84418 | 3564 ft | 10 kts | 253° |
| 2026-05-06 12:12 | 40.85376 | 111.84181 | 3564 ft | 58 kts | 255° |
| 2026-05-06 12:12 | 40.85191 | 111.83397 | 3564 ft | 120 kts | 253° |
| 2026-05-06 12:13 | 40.84884 | 111.82143 | 3672 ft | 160 kts | 254° |
| 2026-05-06 12:13 | 40.84488 | 111.80750 | 4225 ft | 166 kts | 252° |
| 2026-05-06 12:13 | 40.84099 | 111.79352 | 4992 ft | 157 kts | 259° |
| 2026-05-06 12:13 | 40.83824 | 111.77993 | 5670 ft | 154 kts | 263° |
| 2026-05-06 12:14 | 40.83551 | 111.76551 | 5975 ft | 171 kts | 261° |
| 2026-05-06 12:14 | 40.83207 | 111.74959 | 6251 ft | 190 kts | 258° |
| 2026-05-06 12:14 | 40.82796 | 111.73207 | 6493 ft | 209 kts | 258° |
| 2026-05-06 12:14 | 40.82350 | 111.71333 | 6912 ft | 217 kts | 258° |
| 2026-05-06 12:15 | 40.81896 | 111.69429 | 7702 ft | 215 kts | 258° |
| 2026-05-06 12:15 | 40.81328 | 111.67604 | 8614 ft | 222 kts | 242° |
| 2026-05-06 12:15 | 40.80048 | 111.66299 | 9253 ft | 255 kts | 207° |
| 2026-05-06 12:15 | 40.78167 | 111.66128 | 9707 ft | 294 kts | 174° |
| 2026-05-06 12:16 | 40.76215 | 111.67266 | 10246 ft | 319 kts | 152° |
| 2026-05-06 12:16 | 40.75616 | 111.67802 | 10486 ft | 322 kts | 149° |
| 2026-05-06 12:17 | 40.65464 | 111.76474 | 13139 ft | 388 kts | 154° |
| 2026-05-06 12:17 | 40.63158 | 111.78263 | 13953 ft | 391 kts | 158° |
| 2026-05-06 12:17 | 40.60708 | 111.79800 | 14803 ft | 391 kts | 164° |
| 2026-05-06 12:18 | 40.58161 | 111.81066 | 15656 ft | 392 kts | 168° |
| 2026-05-06 12:18 | 40.55564 | 111.82232 | 16496 ft | 397 kts | 168° |
| 2026-05-06 12:18 | 40.52942 | 111.83440 | 17317 ft | 402 kts | 168° |
| 2026-05-06 12:18 | 40.50292 | 111.84690 | 18118 ft | 407 kts | 168° |
| 2026-05-06 12:19 | 40.47614 | 111.85963 | 18908 ft | 411 kts | 168° |
| 2026-05-06 12:19 | 40.44921 | 111.87299 | 19713 ft | 419 kts | 165° |
| 2026-05-06 12:19 | 40.42386 | 111.89351 | 20462 ft | 440 kts | 148° |
| 2026-05-06 12:19 | 40.40250 | 111.92342 | 21159 ft | 459 kts | 132° |
| 2026-05-06 12:20 | 40.38696 | 111.96077 | 21802 ft | 474 kts | 116° |
| 2026-05-06 12:20 | 40.37847 | 112.00318 | 22404 ft | 486 kts | 101° |
| 2026-05-06 12:20 | 40.37772 | 112.04771 | 22967 ft | 493 kts | 85° |
| 2026-05-06 12:20 | 40.38354 | 112.09218 | 23526 ft | 497 kts | 78° |
| 2026-05-06 12:21 | 40.38949 | 112.13712 | 24053 ft | 503 kts | 82° |
| 2026-05-06 12:21 | 40.39207 | 112.18302 | 24654 ft | 506 kts | 90° |
| 2026-05-06 12:21 | 40.39136 | 112.21364 | 25045 ft | 507 kts | 95° |
| 2026-05-06 12:21 | 40.38948 | 112.24484 | 25430 ft | 508 kts | 96° |